createdAt,value
2023-01-25T00:00:47.788Z,2.74
2023-01-25T00:03:15.579Z,3.11
2023-01-25T00:05:43.344Z,2.41
2023-01-25T00:08:11.054Z,2.47
2023-01-25T00:10:38.847Z,2.63
2023-01-25T00:13:06.601Z,3.15
2023-01-25T00:15:34.717Z,3.05
2023-01-25T00:18:03.817Z,2.91
2023-01-25T00:20:31.552Z,3.10
2023-01-25T00:22:59.260Z,3.26
2023-01-25T00:25:26.948Z,3.24
2023-01-25T00:27:54.683Z,2.99
2023-01-25T00:30:22.411Z,2.71
2023-01-25T00:32:55.504Z,2.77
2023-01-25T00:35:24.733Z,2.75
2023-01-25T00:37:54.816Z,2.65
2023-01-25T00:40:22.554Z,2.46
2023-01-25T00:42:50.285Z,2.39
2023-01-25T00:45:19.108Z,2.57
2023-01-25T00:47:46.868Z,2.23
2023-01-25T00:50:14.618Z,2.17
2023-01-25T00:52:43.746Z,2.29
2023-01-25T00:55:11.541Z,2.32
2023-01-25T00:57:39.276Z,2.60
2023-01-25T01:00:08.659Z,2.50
2023-01-25T01:02:36.368Z,2.32
2023-01-25T01:05:04.188Z,2.41
2023-01-25T01:07:32.371Z,1.95
2023-01-25T01:10:01.783Z,2.34
2023-01-25T01:12:29.477Z,2.39
2023-01-25T01:14:57.676Z,2.77
2023-01-25T01:17:25.751Z,2.86
2023-01-25T01:19:53.473Z,3.06
2023-01-25T01:22:21.243Z,2.95
2023-01-25T01:24:49.272Z,2.34
2023-01-25T01:27:18.504Z,2.84
2023-01-25T01:29:46.802Z,2.63
2023-01-25T01:32:14.585Z,2.81
2023-01-25T01:34:42.417Z,2.27
2023-01-25T01:37:10.129Z,2.28
2023-01-25T01:39:37.846Z,2.42
2023-01-25T01:42:05.907Z,1.58
2023-01-25T01:44:49.699Z,2.09
2023-01-25T01:47:23.569Z,2.36
2023-01-25T01:49:55.094Z,2.51
2023-01-25T01:52:29.391Z,2.77
2023-01-25T01:55:01.260Z,2.79
2023-01-25T01:57:33.229Z,2.76
2023-01-25T02:00:06.537Z,2.27
2023-01-25T02:02:34.496Z,2.91
2023-01-25T02:05:08.391Z,2.21
2023-01-25T02:07:38.373Z,1.91
2023-01-25T02:10:08.515Z,2.28
2023-01-25T02:12:37.865Z,2.55
2023-01-25T02:15:08.723Z,2.64
2023-01-25T02:17:39.502Z,1.97
2023-01-25T02:20:16.623Z,1.87
2023-01-25T02:22:53.136Z,1.82
2023-01-25T02:25:22.523Z,1.97
2023-01-25T02:27:54.851Z,2.06
2023-01-25T02:30:23.679Z,1.66
2023-01-25T02:32:51.817Z,1.97
2023-01-25T02:35:22.027Z,1.72
2023-01-25T02:37:50.373Z,1.70
2023-01-25T02:40:18.498Z,1.84
2023-01-25T02:42:48.073Z,1.44
2023-01-25T02:45:19.839Z,1.93
2023-01-25T02:47:48.682Z,1.93
2023-01-25T02:50:17.047Z,1.55
2023-01-25T02:52:44.834Z,1.79
2023-01-25T02:55:12.646Z,1.44
2023-01-25T02:57:40.371Z,1.99
2023-01-25T03:00:11.450Z,2.15
2023-01-25T03:02:39.218Z,1.14
2023-01-25T03:05:07.761Z,1.64
2023-01-25T03:07:35.590Z,2.00
2023-01-25T03:10:03.315Z,1.84
2023-01-25T03:12:31.014Z,1.63
2023-01-25T03:14:58.748Z,2.03
2023-01-25T03:17:28.182Z,1.30
2023-01-25T03:19:55.889Z,1.40
2023-01-25T03:22:23.785Z,1.77
2023-01-25T03:24:51.485Z,2.06
2023-01-25T03:27:19.336Z,2.41
2023-01-25T03:29:47.479Z,1.67
2023-01-25T03:32:15.328Z,1.77
2023-01-25T03:34:44.551Z,2.21
2023-01-25T03:37:12.328Z,2.32
2023-01-25T03:39:40.043Z,1.85
2023-01-25T03:42:08.015Z,2.16
2023-01-25T03:44:35.847Z,1.81
2023-01-25T03:47:04.104Z,1.83
2023-01-25T03:49:31.929Z,1.34
2023-01-25T03:52:01.061Z,1.14
2023-01-25T03:54:28.810Z,0.92
2023-01-25T03:56:56.520Z,1.55
2023-01-25T03:59:24.312Z,1.61
2023-01-25T04:01:52.156Z,1.61
2023-01-25T04:04:19.940Z,1.15
2023-01-25T04:06:47.661Z,1.37
2023-01-25T04:09:17.185Z,1.77
2023-01-25T04:11:44.901Z,1.83
2023-01-25T04:14:12.891Z,1.91
2023-01-25T04:16:40.651Z,1.64
2023-01-25T04:19:08.604Z,1.54
2023-01-25T04:21:36.386Z,1.32
2023-01-25T04:24:04.316Z,1.32
2023-01-25T04:26:33.440Z,1.17
2023-01-25T04:29:01.167Z,1.68
2023-01-25T04:31:28.992Z,1.64
2023-01-25T04:33:56.949Z,1.94
2023-01-25T04:36:24.697Z,1.48
2023-01-25T04:38:52.384Z,1.47
2023-01-25T04:41:20.107Z,1.15
2023-01-25T04:43:49.193Z,1.22
2023-01-25T04:46:16.954Z,1.74
2023-01-25T04:48:45.121Z,1.19
2023-01-25T04:51:14.361Z,1.30
2023-01-25T04:53:42.141Z,1.02
2023-01-25T04:56:09.935Z,0.48
2023-01-25T04:58:37.892Z,1.63
2023-01-25T05:01:07.385Z,1.21
2023-01-25T05:03:35.166Z,1.11
2023-01-25T05:06:02.969Z,1.52
2023-01-25T05:08:31.730Z,1.37
2023-01-25T05:10:59.463Z,1.86
2023-01-25T05:13:27.168Z,1.05
2023-01-25T05:15:57.148Z,1.15
2023-01-25T05:18:30.994Z,1.69
2023-01-25T05:21:03.600Z,1.36
2023-01-25T05:23:31.394Z,1.62
2023-01-25T05:26:16.605Z,1.49
2023-01-25T05:28:44.332Z,1.64
2023-01-25T05:31:12.432Z,0.98
2023-01-25T05:33:41.595Z,0.71
2023-01-25T05:36:09.523Z,1.01
2023-01-25T05:38:37.268Z,0.75
2023-01-25T05:41:05.163Z,0.96
2023-01-25T05:43:32.896Z,0.92
2023-01-25T05:46:00.822Z,1.21
2023-01-25T05:48:28.603Z,0.64
2023-01-25T05:50:59.889Z,0.50
2023-01-25T05:53:27.895Z,0.57
2023-01-25T05:55:55.982Z,0.87
2023-01-25T05:58:23.924Z,0.82
2023-01-25T06:00:51.608Z,1.26
2023-01-25T06:03:19.386Z,1.13
2023-01-25T06:05:47.215Z,1.41
2023-01-25T06:08:16.324Z,1.55
2023-01-25T06:10:44.082Z,1.09
2023-01-25T06:13:11.822Z,0.84
2023-01-25T06:15:39.596Z,1.15
2023-01-25T06:18:07.379Z,1.02
2023-01-25T06:20:35.170Z,1.26
2023-01-25T06:23:02.910Z,1.26
2023-01-25T06:25:31.979Z,1.22
2023-01-25T06:27:59.702Z,1.06
2023-01-25T06:30:27.415Z,1.26
2023-01-25T06:32:55.133Z,1.40
2023-01-25T06:35:22.865Z,1.15
2023-01-25T06:37:50.642Z,1.46
2023-01-25T06:40:18.676Z,1.56
2023-01-25T06:42:47.791Z,1.74
2023-01-25T06:45:15.589Z,1.40
2023-01-25T06:47:43.396Z,1.69
2023-01-25T06:50:11.845Z,1.79
2023-01-25T06:52:39.639Z,2.03
2023-01-25T06:55:12.849Z,1.90
2023-01-25T06:57:41.010Z,1.67
2023-01-25T07:00:11.855Z,1.52
2023-01-25T07:02:39.922Z,1.55
2023-01-25T07:05:08.994Z,1.17
2023-01-25T07:07:36.833Z,1.08
2023-01-25T07:10:04.779Z,1.57
2023-01-25T07:12:32.621Z,1.65
2023-01-25T07:15:00.353Z,1.49
2023-01-25T07:17:29.469Z,1.41
2023-01-25T07:19:57.278Z,0.74
2023-01-25T07:22:25.088Z,1.13
2023-01-25T07:24:53.904Z,1.11
2023-01-25T07:27:21.619Z,0.80
2023-01-25T07:29:49.358Z,1.02
2023-01-25T07:32:17.076Z,1.39
2023-01-25T07:34:46.176Z,1.18
2023-01-25T07:37:13.904Z,0.50
2023-01-25T07:39:48.119Z,0.82
2023-01-25T07:42:16.233Z,1.00
2023-01-25T07:44:43.940Z,1.69
2023-01-25T07:47:11.823Z,1.18
2023-01-25T07:49:39.541Z,1.51
2023-01-25T07:52:08.693Z,1.58
2023-01-25T07:54:36.425Z,1.23
2023-01-25T07:57:04.173Z,1.51
2023-01-25T07:59:32.326Z,1.27
2023-01-25T08:02:00.136Z,1.31
2023-01-25T08:04:27.966Z,1.37
2023-01-25T08:06:55.681Z,1.37
2023-01-25T08:09:25.211Z,0.93
2023-01-25T08:11:53.635Z,1.47
2023-01-25T08:14:21.482Z,1.12
2023-01-25T08:16:49.210Z,0.84
2023-01-25T08:19:16.996Z,0.74
2023-01-25T08:21:44.709Z,0.90
2023-01-25T08:24:13.091Z,0.69
2023-01-25T08:26:43.568Z,0.89
2023-01-25T08:29:12.850Z,1.10
2023-01-25T08:31:43.926Z,1.03
2023-01-25T08:34:11.851Z,1.16
2023-01-25T08:36:39.581Z,1.19
2023-01-25T08:39:09.118Z,1.01
2023-01-25T08:41:37.271Z,0.88
2023-01-25T08:44:06.816Z,1.03
2023-01-25T08:46:35.825Z,0.99
2023-01-25T08:49:04.146Z,1.04
2023-01-25T08:51:33.221Z,1.17
2023-01-25T08:54:04.015Z,0.91
2023-01-25T08:56:31.798Z,1.43
2023-01-25T08:58:59.526Z,1.03
2023-01-25T09:01:28.863Z,0.83
2023-01-25T09:03:56.618Z,0.87
2023-01-25T09:06:24.400Z,0.84
2023-01-25T09:08:52.099Z,0.75
2023-01-25T09:11:22.413Z,0.86
2023-01-25T09:13:50.789Z,1.35
2023-01-25T09:16:27.397Z,0.94
2023-01-25T09:18:57.667Z,0.97
2023-01-25T09:21:25.775Z,0.74
2023-01-25T09:24:05.942Z,0.67
2023-01-25T09:26:35.542Z,0.78
2023-01-25T09:29:03.340Z,0.87
2023-01-25T09:31:31.475Z,0.28
2023-01-25T09:34:01.081Z,0.87
2023-01-25T09:36:28.813Z,0.46
2023-01-25T09:38:56.883Z,0.86
2023-01-25T09:41:43.637Z,0.92
2023-01-25T09:44:25.325Z,0.86
2023-01-25T09:46:57.544Z,0.83
2023-01-25T09:49:45.313Z,1.39
2023-01-25T09:52:39.053Z,1.56
2023-01-25T09:55:14.655Z,1.56
2023-01-25T09:57:45.402Z,1.93
2023-01-25T10:00:21.625Z,2.30
2023-01-25T10:02:55.333Z,1.57
2023-01-25T10:05:29.188Z,1.61
2023-01-25T10:08:01.665Z,1.40
2023-01-25T10:10:36.711Z,0.90
2023-01-25T10:13:04.794Z,1.31
2023-01-25T10:15:39.833Z,1.05
2023-01-25T10:18:21.129Z,1.23
2023-01-25T10:20:56.894Z,0.86
2023-01-25T10:23:52.413Z,1.06
2023-01-25T10:26:26.775Z,1.29
2023-01-25T10:29:03.964Z,1.45
2023-01-25T10:31:41.125Z,2.13
2023-01-25T10:34:20.697Z,1.57
2023-01-25T10:36:55.106Z,1.54
2023-01-25T10:39:23.191Z,1.07
2023-01-25T10:41:56.099Z,1.16
2023-01-25T10:44:26.286Z,1.69
2023-01-25T10:47:00.701Z,1.46
2023-01-25T10:49:37.638Z,1.14
2023-01-25T10:52:18.349Z,1.25
2023-01-25T10:54:46.785Z,1.31
2023-01-25T10:57:19.459Z,1.53
2023-01-25T10:59:48.636Z,1.07
2023-01-25T11:02:45.749Z,1.49
2023-01-25T11:05:28.084Z,1.70
2023-01-25T11:07:57.386Z,1.86
2023-01-25T11:10:34.434Z,1.61
2023-01-25T11:13:21.566Z,1.78
2023-01-25T11:15:51.787Z,1.73
2023-01-25T11:18:23.007Z,1.43
2023-01-25T11:21:05.228Z,1.00
2023-01-25T11:23:35.105Z,1.43
2023-01-25T11:26:14.296Z,1.42
2023-01-25T11:28:42.733Z,1.09
2023-01-25T11:31:13.729Z,1.57
2023-01-25T11:33:42.115Z,1.30
2023-01-25T11:36:26.681Z,1.38
2023-01-25T11:39:19.415Z,1.20
2023-01-25T11:42:00.233Z,1.91
2023-01-25T11:44:56.694Z,1.35
2023-01-25T11:47:41.903Z,1.27
2023-01-25T11:50:16.312Z,1.09
2023-01-25T11:53:09.708Z,1.47
2023-01-25T11:55:46.942Z,1.30
2023-01-25T11:58:33.302Z,1.65
2023-01-25T12:01:12.239Z,1.48
2023-01-25T12:04:25.756Z,2.06
2023-01-25T12:07:00.634Z,2.29
2023-01-25T12:09:44.556Z,2.16
2023-01-25T12:12:25.757Z,2.42
2023-01-25T12:15:11.275Z,2.48
2023-01-25T12:17:51.567Z,2.57
2023-01-25T12:20:37.248Z,2.19
2023-01-25T12:23:25.514Z,2.24
2023-01-25T12:26:08.601Z,1.61
2023-01-25T12:28:42.117Z,2.18
2023-01-25T12:31:15.620Z,2.33
2023-01-25T12:33:48.775Z,2.07
2023-01-25T12:36:21.397Z,1.70
2023-01-25T12:38:54.345Z,1.75
2023-01-25T12:41:30.583Z,2.04
2023-01-25T12:44:09.720Z,1.56
2023-01-25T12:46:43.067Z,1.55
2023-01-25T12:49:21.215Z,1.52
2023-01-25T12:51:50.420Z,1.70
2023-01-25T12:54:24.490Z,1.75
2023-01-25T12:57:02.436Z,1.08
2023-01-25T12:59:41.178Z,1.57
2023-01-25T13:02:23.797Z,2.20
2023-01-25T13:05:03.000Z,2.08
2023-01-25T13:07:38.563Z,2.21
2023-01-25T13:10:19.175Z,2.47
2023-01-25T13:12:54.692Z,2.34
2023-01-25T13:15:42.799Z,2.56
2023-01-25T13:18:39.793Z,2.73
2023-01-25T13:21:13.792Z,2.58
2023-01-25T13:23:47.279Z,2.51
2023-01-25T13:26:49.656Z,2.03
2023-01-25T13:29:46.020Z,2.48
2023-01-25T13:32:35.945Z,1.77
2023-01-25T13:35:05.150Z,1.79
2023-01-25T13:37:35.741Z,2.32
2023-01-25T13:40:06.210Z,1.74
2023-01-25T13:42:36.319Z,2.47
2023-01-25T13:45:15.446Z,2.45
2023-01-25T13:47:46.428Z,2.21
2023-01-25T13:50:23.428Z,2.01
2023-01-25T13:52:58.660Z,2.33
2023-01-25T13:55:27.280Z,1.70
2023-01-25T13:58:09.297Z,1.46
2023-01-25T14:00:37.100Z,1.88
2023-01-25T14:03:07.336Z,1.95
2023-01-25T14:05:35.166Z,2.11
2023-01-25T14:08:02.965Z,1.85
2023-01-25T14:10:31.286Z,1.95
2023-01-25T14:13:01.307Z,2.25
2023-01-25T14:15:31.055Z,2.26
2023-01-25T14:18:15.163Z,2.03
2023-01-25T14:20:43.908Z,1.77
2023-01-25T14:23:25.717Z,1.77
2023-01-25T14:25:55.001Z,1.67
2023-01-25T14:28:23.050Z,2.13
2023-01-25T14:30:55.800Z,2.52
2023-01-25T14:33:28.591Z,2.51
2023-01-25T14:36:05.743Z,2.55
2023-01-25T14:38:38.652Z,2.59
2023-01-25T14:41:14.726Z,2.65
2023-01-25T14:43:45.484Z,1.77
2023-01-25T14:46:28.911Z,1.61
2023-01-25T14:49:25.141Z,2.18
2023-01-25T14:52:00.599Z,1.68
2023-01-25T14:54:31.399Z,2.15
2023-01-25T14:57:01.776Z,2.07
2023-01-25T14:59:37.768Z,1.90
2023-01-25T15:02:18.327Z,1.84
2023-01-25T15:04:56.083Z,2.15
2023-01-25T15:07:37.109Z,1.84
2023-01-25T15:10:15.441Z,2.17
2023-01-25T15:12:43.275Z,2.04
2023-01-25T15:15:22.247Z,2.04
2023-01-25T15:17:51.490Z,2.09
2023-01-25T15:20:36.104Z,1.98
2023-01-25T15:23:18.228Z,2.03
2023-01-25T15:25:57.149Z,1.40
2023-01-25T15:28:26.799Z,1.19
2023-01-25T15:30:54.897Z,1.37
2023-01-25T15:33:25.219Z,1.16
2023-01-25T15:35:55.030Z,1.56
2023-01-25T15:38:24.492Z,1.73
2023-01-25T15:40:52.846Z,1.55
2023-01-25T15:43:21.336Z,1.30
2023-01-25T15:45:51.375Z,2.40
2023-01-25T15:48:23.518Z,1.64
2023-01-25T15:50:51.256Z,1.56
2023-01-25T15:53:20.304Z,2.17
2023-01-25T15:55:51.969Z,1.97
2023-01-25T15:58:33.828Z,1.85
2023-01-25T16:01:01.610Z,1.73
2023-01-25T16:03:29.944Z,1.61
2023-01-25T16:05:59.945Z,1.39
2023-01-25T16:08:30.015Z,1.80
2023-01-25T16:10:58.293Z,1.52
2023-01-25T16:13:26.200Z,1.26
2023-01-25T16:15:56.890Z,1.59
2023-01-25T16:18:24.624Z,1.82
2023-01-25T16:20:52.357Z,1.85
2023-01-25T16:23:20.082Z,1.56
2023-01-25T16:25:49.784Z,1.42
2023-01-25T16:28:17.835Z,1.61
2023-01-25T16:30:45.699Z,1.69
2023-01-25T16:33:13.606Z,1.62
2023-01-25T16:35:41.371Z,1.87
2023-01-25T16:38:12.730Z,2.28
2023-01-25T16:40:40.442Z,1.94
2023-01-25T16:43:09.518Z,1.97
2023-01-25T16:45:37.223Z,1.46
2023-01-25T16:48:05.346Z,1.83
2023-01-25T16:50:33.168Z,2.00
2023-01-25T16:53:01.044Z,2.13
2023-01-25T16:55:28.754Z,2.14
2023-01-25T16:57:56.477Z,1.72
2023-01-25T17:00:25.790Z,1.75
2023-01-25T17:02:59.101Z,2.13
2023-01-25T17:05:29.009Z,1.87
2023-01-25T17:07:56.874Z,1.86
2023-01-25T17:10:25.057Z,1.61
2023-01-25T17:12:52.884Z,2.04
2023-01-25T17:15:20.583Z,2.22
2023-01-25T17:17:50.735Z,1.95
2023-01-25T17:20:18.626Z,1.40
2023-01-25T17:22:50.946Z,1.73
2023-01-25T17:25:18.911Z,1.62
2023-01-25T17:27:47.058Z,1.95
2023-01-25T17:30:15.491Z,1.99
2023-01-25T17:32:43.238Z,2.12
2023-01-25T17:35:12.343Z,1.93
2023-01-25T17:37:41.118Z,2.19
2023-01-25T17:40:11.307Z,1.72
2023-01-25T17:42:39.284Z,2.16
2023-01-25T17:45:08.975Z,2.45
2023-01-25T17:47:36.907Z,2.42
2023-01-25T17:50:04.926Z,2.43
2023-01-25T17:52:33.999Z,2.99
2023-01-25T17:55:01.738Z,2.00
2023-01-25T17:57:31.311Z,1.94
2023-01-25T17:59:59.152Z,2.09
2023-01-25T18:02:26.903Z,2.50
2023-01-25T18:04:54.801Z,1.69
2023-01-25T18:07:22.512Z,2.34
2023-01-25T18:09:51.749Z,1.36
2023-01-25T18:12:20.693Z,2.31
2023-01-25T18:14:48.622Z,1.72
2023-01-25T18:17:16.320Z,1.88
2023-01-25T18:19:45.863Z,1.83
2023-01-25T18:22:14.712Z,2.06
2023-01-25T18:24:44.760Z,1.99
2023-01-25T18:27:20.057Z,2.43
2023-01-25T18:29:55.064Z,2.21
2023-01-25T18:32:23.164Z,2.40
2023-01-25T18:34:50.915Z,2.13
2023-01-25T18:37:21.810Z,2.52
2023-01-25T18:39:50.954Z,2.33
2023-01-25T18:42:21.381Z,2.49
2023-01-25T18:44:49.270Z,2.28
2023-01-25T18:47:18.947Z,1.82
2023-01-25T18:49:47.334Z,2.10
2023-01-25T18:52:16.618Z,2.13
2023-01-25T18:54:44.526Z,2.61
2023-01-25T18:57:13.215Z,1.55
2023-01-25T18:59:42.473Z,2.23
2023-01-25T19:02:12.851Z,1.54
2023-01-25T19:04:40.919Z,1.55
2023-01-25T19:07:08.732Z,1.82
2023-01-25T19:09:36.567Z,1.93
2023-01-25T19:12:04.737Z,1.99
2023-01-25T19:14:32.466Z,1.68
2023-01-25T19:17:01.568Z,1.82
2023-01-25T19:19:32.054Z,1.34
2023-01-25T19:21:59.975Z,1.12
2023-01-25T19:24:27.909Z,1.08
2023-01-25T19:26:55.725Z,1.41
2023-01-25T19:29:23.434Z,1.57
2023-01-25T19:31:51.616Z,1.76
2023-01-25T19:34:20.758Z,1.68
2023-01-25T19:36:50.112Z,1.86
2023-01-25T19:39:19.299Z,2.06
2023-01-25T19:41:47.108Z,2.52
2023-01-25T19:44:15.630Z,2.43
2023-01-25T19:46:44.005Z,2.71
2023-01-25T19:49:13.246Z,2.39
2023-01-25T19:51:48.824Z,2.55
2023-01-25T19:54:18.540Z,2.51
2023-01-25T19:56:47.881Z,2.17
2023-01-25T19:59:17.268Z,2.06
2023-01-25T20:01:46.223Z,2.00
2023-01-25T20:04:15.723Z,1.63
2023-01-25T20:06:45.213Z,1.70
2023-01-25T20:09:14.137Z,1.93
2023-01-25T20:11:42.718Z,1.98
2023-01-25T20:14:13.444Z,1.72
2023-01-25T20:16:41.163Z,1.62
2023-01-25T20:19:11.614Z,1.57
2023-01-25T20:21:39.824Z,1.85
2023-01-25T20:24:10.483Z,1.31
2023-01-25T20:26:39.771Z,1.62
2023-01-25T20:29:08.588Z,1.46
2023-01-25T20:31:38.221Z,1.60
2023-01-25T20:34:08.835Z,1.63
2023-01-25T20:36:37.094Z,1.92
2023-01-25T20:39:06.124Z,1.72
2023-01-25T20:41:35.969Z,1.78
2023-01-25T20:44:08.444Z,1.47
2023-01-25T20:46:38.638Z,1.51
2023-01-25T20:49:08.446Z,1.84
2023-01-25T20:51:36.612Z,1.42
2023-01-25T20:54:04.504Z,1.99
2023-01-25T20:56:32.765Z,1.43
2023-01-25T20:59:01.871Z,1.60
2023-01-25T21:01:31.263Z,1.65
2023-01-25T21:03:59.506Z,1.52
2023-01-25T21:06:29.302Z,1.88
2023-01-25T21:08:57.191Z,2.10
2023-01-25T21:11:25.105Z,2.28
2023-01-25T21:13:53.895Z,1.59
2023-01-25T21:16:24.060Z,1.86
2023-01-25T21:18:54.521Z,2.02
2023-01-25T21:21:23.413Z,1.44
2023-01-25T21:23:51.831Z,1.95
2023-01-25T21:26:22.014Z,1.85
2023-01-25T21:28:49.982Z,2.34
2023-01-25T21:31:20.166Z,1.93
2023-01-25T21:33:49.590Z,2.13
2023-01-25T21:36:18.798Z,1.95
2023-01-25T21:38:47.901Z,1.90
2023-01-25T21:41:19.861Z,2.16
2023-01-25T21:44:04.994Z,1.94
2023-01-25T21:46:33.229Z,1.90
2023-01-25T21:49:22.246Z,2.33
2023-01-25T21:51:51.974Z,2.14
2023-01-25T21:54:22.195Z,1.79
2023-01-25T21:56:52.212Z,1.81
2023-01-25T21:59:20.107Z,1.26
2023-01-25T22:01:48.523Z,1.90
2023-01-25T22:04:19.604Z,1.82
2023-01-25T22:06:48.717Z,1.80
2023-01-25T22:09:16.653Z,1.70
2023-01-25T22:11:45.935Z,1.89
2023-01-25T22:14:13.701Z,1.40
2023-01-25T22:16:41.471Z,1.57
2023-01-25T22:19:09.314Z,1.34
2023-01-25T22:21:38.754Z,1.34
2023-01-25T22:24:07.567Z,1.82
2023-01-25T22:26:46.276Z,1.57
2023-01-25T22:29:14.949Z,1.92
2023-01-25T22:31:43.195Z,1.81
2023-01-25T22:34:11.846Z,1.94
2023-01-25T22:36:40.945Z,1.54
2023-01-25T22:39:09.157Z,1.31
2023-01-25T22:41:38.445Z,1.53
2023-01-25T22:44:06.379Z,1.34
2023-01-25T22:46:34.426Z,1.59
2023-01-25T22:49:02.566Z,1.37
2023-01-25T22:51:31.475Z,1.58
2023-01-25T22:54:01.392Z,1.54
2023-01-25T22:56:31.775Z,1.51
2023-01-25T22:59:00.561Z,1.34
2023-01-25T23:01:30.507Z,1.94
2023-01-25T23:03:58.888Z,1.81
2023-01-25T23:06:28.016Z,2.21
2023-01-25T23:08:57.382Z,2.07
2023-01-25T23:11:32.062Z,1.49
2023-01-25T23:14:18.079Z,1.17
2023-01-25T23:16:45.887Z,1.27
2023-01-25T23:19:12.667Z,1.37
2023-01-25T23:21:41.208Z,0.60
2023-01-25T23:24:09.898Z,0.86
2023-01-25T23:26:39.150Z,1.51
2023-01-25T23:29:12.335Z,1.42
2023-01-25T23:31:40.277Z,1.54
2023-01-25T23:34:08.301Z,2.00
2023-01-25T23:36:38.690Z,1.42
2023-01-25T23:39:07.066Z,1.39
2023-01-25T23:41:34.914Z,1.54
2023-01-25T23:44:03.977Z,1.73
2023-01-25T23:46:31.753Z,2.00
2023-01-25T23:48:59.512Z,1.98
2023-01-25T23:51:27.259Z,2.08
2023-01-25T23:53:55.824Z,1.86
2023-01-25T23:56:23.916Z,1.65
2023-01-25T23:58:51.785Z,1.64
